Accueil
METAR-TAF:

METAR-TAF

Aéroports :

Aéroport de Londres-Southend

Londres-Southend, Angleterre

latitude: 51-34N, longitude: 000-42E, altitude: 15 m

Observation

Le bulletin a été fait il y a 22 minutes, à 17:50 UTC
Vent 13 kt de sud/sud-ouest
Température 22°C
Humidité 60%
Pression 1015 hPa
Visibilité 10 km ou plus
Nuages épars à une hauteur de 3700 ft

METAR: EGMC 151750Z 20013KT 9999 SCT037 22/14 Q1015

Heure: 19:12 (18:12 UTC)

Prévision

Le bulletin a été fait il y a 1 heure et 12 minutes, à 17:00 UTC
Prévision valable du 15 à 18 UTC au 16 à 03 UTC
Vent 12 kt de ouest/sud-ouest
Visibilité 10 km ou plus
Nuages épars à une hauteur de 3400 ft

TAF: EGMC 151700Z 1518/1603 24012KT 9999 SCT034

Observations et prévisions météorologiques de plus de 4000 aéroports (messages METAR et TAF).

Les stations disponibles sont représentées par des disques jaunes et rouges sur la carte.

Passer la souris dessus pour voir le nom de la station.

Cliquer dessus pour voir les observations et prévisions météorologiques.

Pour changer de carte: cliquez sur les boutons verts avec une croix noire pour zoomer, sur le bouton vert avec un tiret pour effectuer un zoom arrière, ou sur les flèches vertes pour les cartes adjacentes.


METAR-TAF: